Time;durP1;ratioP1;P1;durP2;ratioP2;P2;SDS_P1;SDS_P2;PMS_P1;PMS_P2;Temp;Humidity;BMP_temperature;BMP_pressure;BME280_temperature;BME280_humidity;BME280_pressure;Samples;Min_cycle;Max_cycle;Signal;HPM_P1;HPM_P2
2023/06/18 00:01:57;;;;;;;0.00;0.00;;;;;;;18.60;59.27;99834.84;4901761;29;20032;-72
2023/06/18 00:04:23;;;;;;;0.00;0.00;;;;;;;18.49;59.82;99828.88;4903958;28;20119;-73
2023/06/18 00:06:48;;;;;;;0.00;0.00;;;;;;;18.50;60.11;99844.34;4876783;29;20147;-74
2023/06/18 00:09:13;;;;;;;0.00;0.00;;;;;;;18.43;60.70;99846.81;4910214;29;20028;-74
2023/06/18 00:11:39;;;;;;;0.00;0.00;;;;;;;18.36;60.45;99841.00;4909577;29;20780;-72
2023/06/18 00:14:04;;;;;;;0.00;0.00;;;;;;;18.37;60.92;99843.44;4933310;28;20036;-72
2023/06/18 00:16:30;;;;;;;0.00;0.00;;;;;;;18.34;61.42;99837.72;4922822;29;20108;-73
2023/06/18 00:18:55;;;;;;;0.00;0.00;;;;;;;18.25;61.73;99833.06;4932588;28;20042;-73
2023/06/18 00:21:21;;;;;;;0.00;0.00;;;;;;;18.28;61.61;99840.69;4918941;29;20044;-78
2023/06/18 00:23:46;;;;;;;0.00;0.00;;;;;;;18.21;61.75;99829.34;4920426;29;20402;-77
2023/06/18 00:26:11;;;;;;;0.00;0.00;;;;;;;18.27;61.74;99833.53;4907858;29;20126;-79
2023/06/18 00:28:37;;;;;;;0.00;0.00;;;;;;;18.27;61.79;99828.00;4913179;29;20075;-77
2023/06/18 00:31:02;;;;;;;0.00;0.00;;;;;;;18.26;61.97;99809.75;4913422;29;20182;-77
2023/06/18 00:33:28;;;;;;;0.00;0.00;;;;;;;18.30;62.77;99815.47;4912010;29;20024;-77
2023/06/18 00:35:56;;;;;;;0.00;0.00;;;;;;;18.21;62.49;99817.44;4921606;29;20770;-77
2023/06/18 00:38:27;;;;;;;0.00;0.00;;;;;;;18.19;62.94;99817.75;4938288;28;20472;-76
2023/06/18 00:40:52;;;;;;;0.00;0.00;;;;;;;18.19;63.20;99826.06;4929447;29;20028;-75
2023/06/18 00:43:18;;;;;;;0.00;0.00;;;;;;;18.24;63.16;99822.31;4917403;29;20023;-77
2023/06/18 00:45:47;;;;;;;0.00;0.00;;;;;;;18.22;62.92;99825.41;4911934;29;20036;-77
2023/06/18 00:48:14;;;;;;;0.00;0.00;;;;;;;18.29;62.61;99816.59;4910857;29;20020;-76
2023/06/18 00:50:40;;;;;;;0.00;0.00;;;;;;;18.30;62.78;99809.91;4920744;29;20027;-76
2023/06/18 00:53:07;;;;;;;0.00;0.00;;;;;;;18.32;62.99;99813.16;4908291;29;20028;-76
2023/06/18 00:55:37;;;;;;;0.00;0.00;;;;;;;18.41;62.15;99816.72;4924647;29;20059;-78
2023/06/18 00:58:05;;;;;;;0.00;0.00;;;;;;;18.46;62.53;99818.47;4919636;29;20028;-76
2023/06/18 01:00:34;;;;;;;0.00;0.00;;;;;;;18.47;62.67;99817.31;4915495;29;20044;-76
2023/06/18 01:03:20;;;;;;;0.00;0.00;;;;;;;18.49;62.27;99806.72;4928168;28;20020;-76
2023/06/18 01:05:50;;;;;;;0.00;0.00;;;;;;;18.51;62.19;99812.72;4920983;29;20119;-77
2023/06/18 01:08:17;;;;;;;0.00;0.00;;;;;;;18.57;61.93;99813.34;4928517;29;20024;-77
2023/06/18 01:10:44;;;;;;;0.00;0.00;;;;;;;18.60;61.78;99821.81;4917301;29;20510;-77
2023/06/18 01:13:17;;;;;;;0.00;0.00;;;;;;;18.62;61.71;99822.28;4910485;29;20024;-76
2023/06/18 01:15:42;;;;;;;0.00;0.00;;;;;;;18.70;61.87;99822.56;4905688;29;20040;-76
2023/06/18 01:18:08;;;;;;;0.00;0.00;;;;;;;18.72;61.56;99817.50;4923723;29;20047;-76
2023/06/18 01:20:40;;;;;;;0.00;0.00;;;;;;;18.85;61.93;99821.97;4929629;29;20677;-77
2023/06/18 01:23:29;;;;;;;0.00;0.00;;;;;;;18.86;61.76;99815.31;4920868;29;20044;-71
2023/06/18 01:25:59;;;;;;;0.00;0.00;;;;;;;18.85;61.80;99802.56;4925642;29;20058;-71
2023/06/18 01:28:27;;;;;;;0.00;0.00;;;;;;;18.76;61.89;99793.53;4906443;29;20048;-72
2023/06/18 01:30:54;;;;;;;0.00;0.00;;;;;;;18.73;61.82;99800.53;4909914;29;20089;-71
2023/06/18 01:33:21;;;;;;;0.00;0.00;;;;;;;18.74;62.08;99812.44;4893028;29;20114;-69
2023/06/18 01:35:47;;;;;;;0.00;0.00;;;;;;;18.67;62.48;99802.72;4920166;29;20031;-71
2023/06/18 01:38:16;;;;;;;0.00;0.00;;;;;;;18.60;62.90;99802.44;4922819;29;20042;-72
2023/06/18 01:40:49;;;;;;;0.00;0.00;;;;;;;18.53;62.89;99807.69;4916863;29;20039;-70
2023/06/18 01:43:34;;;;;;;0.00;0.00;;;;;;;18.48;63.05;99805.09;4938211;28;20034;-70
2023/06/18 01:46:06;;;;;;;0.00;0.00;;;;;;;18.44;63.20;99804.97;4920954;29;20462;-70
2023/06/18 01:48:39;;;;;;;0.00;0.00;;;;;;;18.41;63.52;99802.88;4916370;29;20039;-70
2023/06/18 01:51:08;;;;;;;0.00;0.00;;;;;;;18.43;63.44;99814.41;4921561;29;20466;-73
2023/06/18 01:53:37;;;;;;;0.00;0.00;;;;;;;18.41;63.67;99804.81;4920465;29;20909;-71
2023/06/18 01:56:03;;;;;;;0.00;0.00;;;;;;;18.44;63.99;99798.59;4894793;29;20250;-71
2023/06/18 01:58:33;;;;;;;0.00;0.00;;;;;;;18.51;63.69;99803.63;4894612;29;20044;-71
2023/06/18 02:00:59;;;;;;;0.00;0.00;;;;;;;18.51;63.75;99798.88;4913235;29;20089;-71
2023/06/18 02:03:25;;;;;;;0.00;0.00;;;;;;;18.56;64.08;99786.81;4922906;29;20550;-71
2023/06/18 02:05:51;;;;;;;0.00;0.00;;;;;;;18.55;64.08;99788.78;4926557;29;20122;-71
2023/06/18 02:08:17;;;;;;;0.00;0.00;;;;;;;18.63;64.03;99790.69;4908634;29;20107;-71
2023/06/18 02:10:42;;;;;;;0.00;0.00;;;;;;;18.57;63.90;99780.94;4923146;29;20040;-72
2023/06/18 02:13:09;;;;;;;0.00;0.00;;;;;;;18.62;64.55;99788.25;4914539;29;20024;-71
2023/06/18 02:15:35;;;;;;;0.00;0.00;;;;;;;18.56;64.22;99778.50;4912389;29;20035;-72
2023/06/18 02:18:03;;;;;;;0.00;0.00;;;;;;;18.39;64.41;99757.28;4935909;28;20095;-71
2023/06/18 02:20:29;;;;;;;0.00;0.00;;;;;;;18.46;64.90;99779.72;4922604;29;20082;-71
2023/06/18 02:22:55;;;;;;;0.00;0.00;;;;;;;18.43;64.56;99780.38;4931743;29;20035;-72
2023/06/18 02:25:28;;;;;;;0.00;0.00;;;;;;;18.37;65.70;99765.09;4899425;29;20588;-71
2023/06/18 02:28:00;;;;;;;0.00;0.00;;;;;;;18.30;65.25;99765.66;4923211;29;20035;-71
2023/06/18 02:30:28;;;;;;;0.00;0.00;;;;;;;18.29;65.65;99769.53;4903839;29;20047;-71
2023/06/18 02:33:01;;;;;;;0.00;0.00;;;;;;;18.28;65.46;99757.69;4914598;29;20036;-76
2023/06/18 02:35:27;;;;;;;0.00;0.00;;;;;;;18.30;66.08;99758.13;4925083;29;20419;-74
2023/06/18 02:37:53;;;;;;;0.00;0.00;;;;;;;18.24;65.98;99759.47;4925053;29;20031;-76
2023/06/18 02:40:19;;;;;;;0.00;0.00;;;;;;;18.28;65.86;99752.16;4936528;29;20087;-77
2023/06/18 02:42:47;;;;;;;0.00;0.00;;;;;;;18.30;65.61;99760.91;4924238;29;20849;-76
2023/06/18 02:45:21;;;;;;;0.00;0.00;;;;;;;18.31;66.27;99745.94;4913760;29;20111;-77
2023/06/18 02:47:48;;;;;;;0.00;0.00;;;;;;;18.30;66.00;99744.31;4929095;29;20508;-75
2023/06/18 02:50:15;;;;;;;0.00;0.00;;;;;;;18.28;65.80;99732.78;4915536;29;20035;-75
2023/06/18 02:52:40;;;;;;;0.00;0.00;;;;;;;18.26;65.84;99726.75;4919077;29;20118;-75
2023/06/18 02:55:07;;;;;;;0.00;0.00;;;;;;;18.23;66.19;99721.88;4916285;29;20175;-74
2023/06/18 02:57:37;;;;;;;0.00;0.00;;;;;;;18.17;66.24;99714.13;4915939;28;20116;-75
2023/06/18 03:00:13;;;;;;;0.00;0.00;;;;;;;18.09;66.18;99721.31;4923872;29;20040;-75
2023/06/18 03:02:41;;;;;;;0.00;0.00;;;;;;;18.02;66.57;99723.78;4912734;29;20036;-76
2023/06/18 03:05:07;;;;;;;0.00;0.00;;;;;;;17.97;66.80;99724.78;4915507;29;20115;-77
2023/06/18 03:07:32;;;;;;;0.00;0.00;;;;;;;17.87;66.83;99720.44;4911646;29;20091;-76
2023/06/18 03:09:57;;;;;;;0.00;0.00;;;;;;;17.77;67.00;99709.72;4931778;29;20028;-75
2023/06/18 03:12:24;;;;;;;0.00;0.00;;;;;;;17.75;67.35;99712.81;4914616;29;20431;-76
2023/06/18 03:14:49;;;;;;;0.00;0.00;;;;;;;17.70;67.14;99714.97;4926726;29;20034;-76
2023/06/18 03:17:15;;;;;;;0.00;0.00;;;;;;;17.64;67.10;99711.56;4946066;28;20114;-75
2023/06/18 03:19:40;;;;;;;0.00;0.00;;;;;;;17.55;67.67;99697.78;4925617;29;20031;-75
2023/06/18 03:22:06;;;;;;;0.00;0.00;;;;;;;17.53;68.18;99694.53;4915403;29;20035;-76
2023/06/18 03:24:32;;;;;;;0.00;0.00;;;;;;;17.49;67.93;99703.81;4931540;29;20028;-74
2023/06/18 03:27:01;;;;;;;0.00;0.00;;;;;;;17.46;68.44;99710.81;4923488;29;20063;-75
2023/06/18 03:29:29;;;;;;;0.00;0.00;;;;;;;17.44;68.21;99711.13;4892669;29;20416;-75
2023/06/18 03:31:56;;;;;;;0.00;0.00;;;;;;;17.36;68.54;99698.16;4892521;29;20032;-74
2023/06/18 03:34:23;;;;;;;0.00;0.00;;;;;;;17.37;68.32;99712.78;4895674;29;20052;-75
2023/06/18 03:36:49;;;;;;;0.00;0.00;;;;;;;17.33;69.27;99712.63;4889778;29;20020;-77
2023/06/18 03:39:15;;;;;;;0.00;0.00;;;;;;;17.31;68.81;99708.59;4890017;29;20123;-77
2023/06/18 03:41:41;;;;;;;0.00;0.00;;;;;;;17.31;69.44;99719.63;4911680;29;20040;-75
2023/06/18 03:44:08;;;;;;;0.00;0.00;;;;;;;17.34;69.26;99719.78;4885094;29;20387;-76
2023/06/18 03:46:33;;;;;;;0.00;0.00;;;;;;;17.43;68.99;99728.03;4888456;29;20056;-75
2023/06/18 03:48:59;;;;;;;0.00;0.00;;;;;;;17.57;68.30;99723.13;4903706;29;20128;-75
2023/06/18 03:51:25;;;;;;;0.00;0.00;;;;;;;17.69;68.32;99724.41;4887291;29;20035;-76
2023/06/18 03:53:51;;;;;;;0.00;0.00;;;;;;;17.75;68.34;99718.34;4890300;29;20465;-76
2023/06/18 03:56:17;;;;;;;0.00;0.00;;;;;;;17.84;68.42;99714.72;4884915;29;20044;-75
2023/06/18 03:58:43;;;;;;;0.00;0.00;;;;;;;17.87;68.23;99703.84;4886543;29;20072;-75
2023/06/18 04:01:09;;;;;;;0.00;0.00;;;;;;;17.92;68.46;99711.97;4894705;29;20020;-75
2023/06/18 04:03:36;;;;;;;0.00;0.00;;;;;;;17.97;68.53;99708.19;4900833;29;20047;-75
2023/06/18 04:06:01;;;;;;;0.00;0.00;;;;;;;17.97;68.42;99702.66;4918463;29;20431;-76
2023/06/18 04:08:27;;;;;;;0.00;0.00;;;;;;;17.98;68.37;99695.19;4899542;29;20089;-75
2023/06/18 04:10:53;;;;;;;0.00;0.00;;;;;;;18.03;68.32;99694.97;4886352;29;20029;-77
2023/06/18 04:13:19;;;;;;;0.00;0.00;;;;;;;18.06;68.29;99691.53;4890699;29;20028;-75
2023/06/18 04:15:45;;;;;;;0.00;0.00;;;;;;;18.04;68.19;99688.31;4882650;29;20029;-76
2023/06/18 04:18:10;;;;;;;0.00;0.00;;;;;;;18.02;68.74;99696.13;4884149;29;20025;-74
2023/06/18 04:20:36;;;;;;;0.00;0.00;;;;;;;18.01;68.89;99697.28;4881378;29;20029;-73
2023/06/18 04:23:01;;;;;;;0.00;0.00;;;;;;;18.04;69.17;99714.00;4884655;29;20488;-75
2023/06/18 04:25:27;;;;;;;0.00;0.00;;;;;;;18.09;68.83;99710.25;4899149;29;20071;-74
2023/06/18 04:27:52;;;;;;;0.00;0.00;;;;;;;18.15;68.40;99717.22;4903238;29;20040;-75
2023/06/18 04:30:18;;;;;;;0.00;0.00;;;;;;;18.16;68.36;99704.19;4904955;29;20522;-75
2023/06/18 04:32:44;;;;;;;0.00;0.00;;;;;;;18.13;68.53;99694.59;4898028;29;20036;-75
2023/06/18 04:35:10;;;;;;;0.00;0.00;;;;;;;18.12;68.44;99695.72;4907489;29;20031;-75
2023/06/18 04:37:38;;;;;;;0.00;0.00;;;;;;;18.11;68.88;99696.91;4891791;29;20124;-75
2023/06/18 04:40:05;;;;;;;0.00;0.00;;;;;;;18.05;68.67;99692.72;4917219;29;20040;-75
2023/06/18 04:42:31;;;;;;;0.00;0.00;;;;;;;17.94;68.86;99682.00;4908458;29;20048;-75
2023/06/18 04:44:56;;;;;;;0.00;0.00;;;;;;;17.88;69.16;99694.38;4885202;29;20032;-76
2023/06/18 04:47:21;;;;;;;0.00;0.00;;;;;;;17.80;69.04;99687.75;4909909;29;20024;-75
2023/06/18 04:49:47;;;;;;;0.00;0.00;;;;;;;17.71;69.63;99689.75;4910679;29;20035;-76
2023/06/18 04:52:14;;;;;;;0.00;0.00;;;;;;;17.66;69.80;99692.69;4917039;29;20028;-75
2023/06/18 04:54:40;;;;;;;0.00;0.00;;;;;;;17.63;69.46;99688.63;4932381;28;20064;-75
2023/06/18 04:57:06;;;;;;;0.00;0.00;;;;;;;17.60;69.66;99689.28;4925152;29;20032;-75
2023/06/18 04:59:31;;;;;;;0.00;0.00;;;;;;;17.63;70.08;99694.16;4919938;29;20034;-75
2023/06/18 05:01:57;;;;;;;0.00;0.00;;;;;;;17.60;69.64;99686.53;4907824;29;20035;-75
2023/06/18 05:04:22;;;;;;;0.00;0.00;;;;;;;17.63;70.04;99693.34;4903546;29;20039;-74
2023/06/18 05:06:48;;;;;;;0.00;0.00;;;;;;;17.57;69.76;99683.63;4930481;29;20526;-74
2023/06/18 05:09:16;;;;;;;0.00;0.00;;;;;;;17.67;69.58;99699.03;4892623;29;20066;-74
2023/06/18 05:11:41;;;;;;;0.00;0.00;;;;;;;17.67;69.67;99705.38;4938757;28;20115;-75
2023/06/18 05:14:07;;;;;;;0.00;0.00;;;;;;;17.76;69.89;99702.56;4908549;29;20057;-76
2023/06/18 05:16:32;;;;;;;0.00;0.00;;;;;;;17.87;69.09;99712.13;4904085;29;20115;-73
2023/06/18 05:18:59;;;;;;;0.00;0.00;;;;;;;17.94;69.25;99715.19;4908272;29;20467;-76
2023/06/18 05:21:24;;;;;;;0.00;0.00;;;;;;;18.02;68.71;99712.72;4899629;29;20028;-74
2023/06/18 05:23:50;;;;;;;0.00;0.00;;;;;;;18.08;68.68;99698.38;4908070;29;20380;-76
2023/06/18 05:26:15;;;;;;;0.00;0.00;;;;;;;18.17;68.35;99706.63;4903174;29;20471;-76
2023/06/18 05:28:41;;;;;;;0.00;0.00;;;;;;;18.26;68.06;99695.50;4903355;29;20040;-75
2023/06/18 05:31:06;;;;;;;0.00;0.00;;;;;;;18.40;68.42;99695.22;4923306;29;20786;-71
2023/06/18 05:33:32;;;;;;;0.00;0.00;;;;;;;18.54;67.71;99693.00;4906760;29;20038;-71
2023/06/18 05:35:58;;;;;;;0.00;0.00;;;;;;;18.72;67.75;99698.41;4910684;29;20094;-71
2023/06/18 05:38:24;;;;;;;0.00;0.00;;;;;;;18.89;67.30;99703.81;4896898;29;20040;-71
2023/06/18 05:40:49;;;;;;;0.00;0.00;;;;;;;19.10;66.90;99708.53;4919574;29;20032;-75
2023/06/18 05:43:15;;;;;;;0.00;0.00;;;;;;;19.25;66.46;99702.34;4926811;29;20051;-75
2023/06/18 05:45:40;;;;;;;0.00;0.00;;;;;;;19.41;66.00;99704.47;4900802;29;20032;-69
2023/06/18 05:48:08;;;;;;;0.00;0.00;;;;;;;19.53;65.92;99705.28;4917931;29;20122;-70
2023/06/18 05:50:33;;;;;;;0.00;0.00;;;;;;;19.70;65.63;99707.06;4903373;29;20036;-68
2023/06/18 05:52:59;;;;;;;0.00;0.00;;;;;;;19.85;65.18;99699.25;4901651;29;20684;-71
2023/06/18 05:55:24;;;;;;;0.00;0.00;;;;;;;20.03;64.87;99706.19;4934448;28;20032;-75
2023/06/18 05:57:50;;;;;;;0.00;0.00;;;;;;;20.17;64.39;99702.25;4905247;29;20020;-75
2023/06/18 06:00:16;;;;;;;0.00;0.00;;;;;;;20.34;63.85;99703.94;4926093;29;20122;-75
2023/06/18 06:02:43;;;;;;;0.00;0.00;;;;;;;20.48;63.57;99703.56;4898132;29;20471;-75
2023/06/18 06:05:08;;;;;;;0.00;0.00;;;;;;;20.60;63.42;99694.41;4902154;29;20095;-75
2023/06/18 06:07:36;;;;;;;0.00;0.00;;;;;;;20.68;62.85;99691.50;4932433;28;20659;-76
2023/06/18 06:10:01;;;;;;;0.00;0.00;;;;;;;20.75;62.58;99693.72;4911980;29;20028;-76
2023/06/18 06:12:27;;;;;;;0.00;0.00;;;;;;;20.78;62.36;99708.84;4906950;29;20042;-74
2023/06/18 06:14:52;;;;;;;0.00;0.00;;;;;;;20.80;62.22;99712.88;4887120;29;20056;-74
2023/06/18 06:17:17;;;;;;;0.00;0.00;;;;;;;20.74;62.43;99714.31;4900582;29;20443;-74
2023/06/18 06:19:43;;;;;;;0.00;0.00;;;;;;;20.75;62.41;99719.50;4899685;29;20064;-73
2023/06/18 06:22:08;;;;;;;0.00;0.00;;;;;;;20.74;62.16;99717.88;4909896;29;20526;-75
2023/06/18 06:24:34;;;;;;;0.00;0.00;;;;;;;20.77;62.26;99710.03;4899442;29;20040;-75
2023/06/18 06:26:59;;;;;;;0.00;0.00;;;;;;;20.98;61.75;99716.16;4909114;29;20036;-75
2023/06/18 06:29:25;;;;;;;0.00;0.00;;;;;;;21.20;61.52;99702.88;4908732;29;20051;-76
2023/06/18 06:31:50;;;;;;;0.00;0.00;;;;;;;21.39;60.74;99697.44;4905532;29;20083;-75
2023/06/18 06:34:16;;;;;;;0.00;0.00;;;;;;;21.70;60.34;99697.84;4934987;28;20028;-76
2023/06/18 06:36:42;;;;;;;0.00;0.00;;;;;;;21.95;59.81;99693.69;4892610;29;20168;-77
2023/06/18 06:39:08;;;;;;;0.00;0.00;;;;;;;22.06;59.02;99679.22;4913250;29;20119;-76
2023/06/18 06:41:34;;;;;;;0.00;0.00;;;;;;;22.25;59.22;99692.38;4923989;29;20431;-77
2023/06/18 06:44:00;;;;;;;0.00;0.00;;;;;;;22.34;58.55;99695.84;4926588;29;20028;-77
2023/06/18 06:46:25;;;;;;;0.00;0.00;;;;;;;22.50;58.00;99704.13;4912490;29;20078;-76
2023/06/18 06:48:50;;;;;;;0.00;0.00;;;;;;;22.64;57.91;99698.06;4905493;29;20467;-76
2023/06/18 06:51:16;;;;;;;0.00;0.00;;;;;;;22.78;57.01;99692.78;4923425;29;20478;-75
2023/06/18 06:53:41;;;;;;;0.00;0.00;;;;;;;22.97;56.62;99696.75;4915209;29;20050;-75
2023/06/18 06:56:07;;;;;;;0.00;0.00;;;;;;;23.10;56.58;99698.22;4910406;29;20071;-74
2023/06/18 06:58:32;;;;;;;0.00;0.00;;;;;;;23.32;55.94;99698.66;4922786;29;20674;-75
2023/06/18 07:00:58;;;;;;;0.00;0.00;;;;;;;23.53;55.86;99693.44;4918506;29;20036;-74
2023/06/18 07:03:24;;;;;;;0.00;0.00;;;;;;;23.78;54.87;99701.41;4922308;28;20028;-71
2023/06/18 07:05:50;;;;;;;0.00;0.00;;;;;;;23.80;54.90;99701.88;4917979;28;20035;-73
2023/06/18 07:08:15;;;;;;;0.00;0.00;;;;;;;23.92;54.58;99702.88;4925728;29;20031;-73
2023/06/18 07:10:40;;;;;;;0.00;0.00;;;;;;;23.99;53.93;99694.59;4920910;29;20463;-74
2023/06/18 07:13:06;;;;;;;0.00;0.00;;;;;;;24.26;54.02;99701.00;4903938;29;20438;-73
2023/06/18 07:15:31;;;;;;;0.00;0.00;;;;;;;24.47;53.23;99694.09;4887768;29;20043;-73
2023/06/18 07:17:57;;;;;;;0.00;0.00;;;;;;;24.72;53.01;99705.63;4926804;29;20078;-73
2023/06/18 07:20:23;;;;;;;0.00;0.00;;;;;;;24.66;52.48;99684.81;4899527;29;20039;-73
2023/06/18 07:22:48;;;;;;;0.00;0.00;;;;;;;24.88;52.11;99703.47;4927439;29;20052;-69
2023/06/18 07:25:14;;;;;;;0.00;0.00;;;;;;;25.06;51.75;99708.47;4924350;28;20059;-70
2023/06/18 07:27:39;;;;;;;0.00;0.00;;;;;;;25.22;51.25;99716.63;4899012;29;20487;-69
2023/06/18 07:30:05;;;;;;;0.00;0.00;;;;;;;25.39;50.71;99716.06;4902031;29;20458;-69
2023/06/18 07:32:31;;;;;;;0.00;0.00;;;;;;;25.63;50.54;99713.06;4901460;29;20043;-70
2023/06/18 07:34:56;;;;;;;0.00;0.00;;;;;;;25.81;49.45;99708.41;4901562;29;20028;-69
2023/06/18 07:37:22;;;;;;;0.00;0.00;;;;;;;26.01;49.31;99716.63;4902235;29;20028;-69
2023/06/18 07:39:47;;;;;;;0.00;0.00;;;;;;;26.12;48.95;99717.50;4905391;29;20040;-71
2023/06/18 07:42:13;;;;;;;0.00;0.00;;;;;;;26.09;48.00;99723.88;4916574;29;20040;-70
2023/06/18 07:44:38;;;;;;;0.00;0.00;;;;;;;26.18;47.77;99721.56;4927253;28;20040;-69
2023/06/18 07:47:04;;;;;;;0.00;0.00;;;;;;;26.39;47.94;99711.69;4912748;29;20075;-70
2023/06/18 07:49:29;;;;;;;0.00;0.00;;;;;;;26.62;47.56;99706.59;4932060;28;20040;-71
2023/06/18 07:51:55;;;;;;;0.00;0.00;;;;;;;26.72;47.24;99701.44;4900132;29;20038;-69
2023/06/18 07:54:21;;;;;;;0.00;0.00;;;;;;;26.77;46.84;99692.69;4901237;29;20075;-71
2023/06/18 07:56:46;;;;;;;0.00;0.00;;;;;;;26.35;46.58;99694.03;4906799;29;20047;-69
2023/06/18 07:59:12;;;;;;;0.00;0.00;;;;;;;26.20;47.05;99685.53;4906321;29;20695;-69
2023/06/18 08:01:42;;;;;;;0.00;0.00;;;;;;;25.85;47.58;99692.47;4927754;28;20040;-70
2023/06/18 08:04:08;;;;;;;0.00;0.00;;;;;;;25.46;48.05;99698.50;4901890;29;20031;-70
2023/06/18 08:06:33;;;;;;;0.00;0.00;;;;;;;24.98;48.78;99692.78;4915095;29;20434;-71
2023/06/18 08:08:59;;;;;;;0.00;0.00;;;;;;;24.85;49.40;99690.25;4922834;29;20037;-70
2023/06/18 08:11:25;;;;;;;0.00;0.00;;;;;;;24.82;49.51;99693.78;4909223;29;20111;-70
2023/06/18 08:13:53;;;;;;;0.00;0.00;;;;;;;24.64;49.39;99684.38;4900368;29;20033;-71
2023/06/18 08:16:21;;;;;;;0.00;0.00;;;;;;;24.96;49.64;99697.97;4894570;29;20066;-70
2023/06/18 08:18:46;;;;;;;0.00;0.00;;;;;;;24.96;49.02;99687.56;4904235;29;20083;-71
2023/06/18 08:21:12;;;;;;;0.00;0.00;;;;;;;25.20;48.96;99689.06;4902010;29;20047;-69
2023/06/18 08:23:37;;;;;;;0.00;0.00;;;;;;;25.44;48.45;99670.13;4904566;29;20036;-68
2023/06/18 08:26:03;;;;;;;0.00;0.00;;;;;;;25.39;48.92;99678.84;4882272;29;20138;-70
2023/06/18 08:28:29;;;;;;;0.00;0.00;;;;;;;25.67;48.25;99680.28;4904030;29;20403;-72
2023/06/18 08:30:54;;;;;;;0.00;0.00;;;;;;;26.00;48.03;99676.59;4914439;29;20186;-69
2023/06/18 08:33:19;;;;;;;0.00;0.00;;;;;;;26.25;47.63;99676.75;4921687;28;20092;-70
2023/06/18 08:35:45;;;;;;;0.00;0.00;;;;;;;26.64;47.40;99670.53;4889526;29;20063;-70
2023/06/18 08:38:10;;;;;;;0.00;0.00;;;;;;;27.05;46.83;99671.53;4897533;29;20036;-70
2023/06/18 08:40:48;;;;;;;0.00;0.00;;;;;;;27.43;46.28;99663.59;4901161;29;20553;-68
2023/06/18 08:43:14;;;;;;;0.00;0.00;;;;;;;27.58;45.77;99667.22;4896719;29;20766;-70
2023/06/18 08:45:40;;;;;;;0.00;0.00;;;;;;;27.47;45.91;99650.38;4898317;29;20119;-68
2023/06/18 08:48:08;;;;;;;0.00;0.00;;;;;;;27.64;45.55;99652.38;4895064;29;20443;-69
2023/06/18 08:50:35;;;;;;;0.00;0.00;;;;;;;27.84;44.97;99649.16;4901404;29;20095;-69
2023/06/18 08:53:11;;;;;;;0.00;0.00;;;;;;;28.14;44.76;99648.75;4904925;29;20039;-69
2023/06/18 08:55:37;;;;;;;0.00;0.00;;;;;;;28.49;44.07;99649.03;4895167;29;20033;-70
2023/06/18 08:58:09;;;;;;;0.00;0.00;;;;;;;28.69;43.53;99641.75;4919308;29;20615;-70
2023/06/18 09:00:38;;;;;;;0.00;0.00;;;;;;;28.93;43.50;99656.09;4898140;29;20520;-70
2023/06/18 09:03:04;;;;;;;0.00;0.00;;;;;;;29.15;42.99;99653.16;4900690;29;20419;-70
2023/06/18 09:05:30;;;;;;;0.00;0.00;;;;;;;28.55;42.52;99653.03;4914971;29;20040;-71
2023/06/18 09:07:59;;;;;;;0.00;0.00;;;;;;;28.02;43.81;99655.59;4929578;28;20501;-70
2023/06/18 09:10:25;;;;;;;0.00;0.00;;;;;;;27.85;43.97;99664.81;4903906;29;20047;-73
2023/06/18 09:12:51;;;;;;;0.00;0.00;;;;;;;27.83;44.09;99653.16;4897926;29;20055;-73
2023/06/18 09:15:25;;;;;;;0.00;0.00;;;;;;;27.77;43.90;99632.31;4925937;29;20060;-73
2023/06/18 09:28:15;;;;;;;0.00;0.00;;;;;;;28.57;43.37;99625.31;4740682;29;20076;-75
2023/06/18 09:48:06;;;;;;;0.00;0.00;;;;;;;28.44;43.16;99626.97;4756263;30;20044;-73
2023/06/18 09:50:32;;;;;;;0.00;0.00;;;;;;;28.69;43.15;99624.88;4753328;30;20048;-73
2023/06/18 09:53:04;;;;;;;0.00;0.00;;;;;;;28.63;42.77;99609.63;4777230;29;20078;-72
2023/06/18 09:55:41;;;;;;;0.00;0.00;;;;;;;28.95;42.33;99624.75;4772851;29;20047;-72
2023/06/18 10:16:24;;;;;;;0.00;0.00;;;;;;;29.50;41.43;99620.38;4193781;23;20183;-74
2023/06/18 10:19:11;;;;;;;0.00;0.00;;;;;;;29.69;40.79;99633.06;4960956;28;20855;-72
2023/06/18 10:21:54;;;;;;;0.00;0.00;;;;;;;29.91;40.71;99616.78;4974236;28;20066;-72
2023/06/18 10:24:23;;;;;;;0.00;0.00;;;;;;;30.64;39.94;99626.84;4970802;28;20078;-72
2023/06/18 10:26:49;;;;;;;0.00;0.00;;;;;;;30.39;38.79;99632.78;4994374;28;20037;-73
2023/06/18 10:29:15;;;;;;;0.00;0.00;;;;;;;29.81;39.78;99623.31;4979385;28;20043;-72
2023/06/18 10:31:42;;;;;;;0.00;0.00;;;;;;;29.36;40.92;99627.69;4986411;28;20118;-71
2023/06/18 10:34:08;;;;;;;0.00;0.00;;;;;;;29.01;41.30;99628.72;4996863;28;20029;-72
2023/06/18 10:36:34;;;;;;;0.00;0.00;;;;;;;28.76;41.57;99628.88;4984009;28;20486;-74
2023/06/18 10:39:04;;;;;;;0.00;0.00;;;;;;;28.47;42.82;99617.72;4982497;28;20045;-72
2023/06/18 10:41:30;;;;;;;0.00;0.00;;;;;;;28.52;43.31;99622.94;4981113;28;20384;-72
2023/06/18 10:44:03;;;;;;;0.00;0.00;;;;;;;28.38;42.95;99610.50;4991550;28;20030;-73
2023/06/18 10:46:33;;;;;;;0.00;0.00;;;;;;;28.53;43.23;99618.88;4988876;28;20038;-71
2023/06/18 10:49:20;;;;;;;0.00;0.00;;;;;;;28.51;42.38;99618.50;5005095;28;20037;-74
2023/06/18 10:51:57;;;;;;;0.00;0.00;;;;;;;28.33;41.95;99596.88;5000705;28;20026;-73
2023/06/18 10:54:30;;;;;;;0.00;0.00;;;;;;;28.82;41.84;99613.16;4984512;28;20021;-73
2023/06/18 10:57:01;;;;;;;0.00;0.00;;;;;;;29.40;40.92;99617.19;5007914;28;20125;-73
2023/06/18 10:59:45;;;;;;;0.00;0.00;;;;;;;29.84;39.96;99622.50;4987771;28;20468;-73
2023/06/18 11:02:13;;;;;;;;;;;;;;;29.75;39.61;99626.56;4989553;28;20065;-74
2023/06/18 11:04:40;;;;;;;0.00;0.00;;;;;;;29.63;39.93;99624.28;4981371;28;20397;-74
2023/06/18 11:07:18;;;;;;;0.00;0.00;;;;;;;29.50;39.48;99620.38;5007528;28;20076;-75
2023/06/18 11:09:50;;;;;;;0.00;0.00;;;;;;;29.65;40.29;99606.94;4977610;28;20034;-75
2023/06/18 11:12:20;;;;;;;0.00;0.00;;;;;;;30.53;39.87;99617.72;4987540;28;20037;-73
2023/06/18 11:15:18;;;;;;;0.00;0.00;;;;;;;31.03;38.81;99610.63;4973778;28;20063;-73
2023/06/18 11:17:44;;;;;;;0.00;0.00;;;;;;;31.03;38.78;99613.44;4975526;28;20034;-73
2023/06/18 11:20:14;;;;;;;0.00;0.00;;;;;;;30.94;38.32;99610.31;4999504;28;20034;-74
2023/06/18 11:22:41;;;;;;;0.00;0.00;;;;;;;30.53;38.59;99622.56;4996240;28;20036;-74
2023/06/18 11:25:21;;;;;;;0.00;0.00;;;;;;;30.45;38.48;99616.22;4969304;28;20360;-72
2023/06/18 11:27:48;;;;;;;0.00;0.00;;;;;;;30.22;38.93;99614.81;4986109;28;20050;-73
2023/06/18 11:30:15;;;;;;;0.00;0.00;;;;;;;30.26;38.55;99626.09;4966345;28;20587;-71
2023/06/18 11:32:41;;;;;;;0.00;0.00;;;;;;;30.06;38.99;99606.94;4962919;28;20042;-69
2023/06/18 11:35:08;;;;;;;0.00;0.00;;;;;;;29.94;39.27;99618.78;4986112;28;20030;-69
2023/06/18 11:37:35;;;;;;;0.00;0.00;;;;;;;29.98;39.87;99616.72;4969440;28;20031;-70
2023/06/18 11:40:02;;;;;;;0.00;0.00;;;;;;;29.98;39.83;99622.34;4991926;28;20040;-69
2023/06/18 11:42:28;;;;;;;0.00;0.00;;;;;;;29.98;39.79;99621.53;4976444;28;20048;-70
2023/06/18 11:44:58;;;;;;;0.00;0.00;;;;;;;29.72;40.08;99604.84;4994347;28;20034;-69
2023/06/18 11:47:26;;;;;;;0.00;0.00;;;;;;;29.20;40.48;99618.94;4992525;28;20026;-70
2023/06/18 11:49:52;;;;;;;0.00;0.00;;;;;;;28.81;41.70;99603.09;4988316;28;20679;-72
2023/06/18 11:52:21;;;;;;;0.00;0.00;;;;;;;28.60;42.04;99616.03;4983369;28;20038;-70
2023/06/18 11:54:48;;;;;;;0.00;0.00;;;;;;;28.09;42.92;99606.19;4995411;28;20460;-71
2023/06/18 11:57:15;;;;;;;0.00;0.00;;;;;;;27.98;43.45;99601.41;4976371;28;20658;-71
2023/06/18 11:59:41;;;;;;;0.00;0.00;;;;;;;27.78;43.71;99609.44;4998281;28;20803;-71
2023/06/18 12:02:14;;;;;;;0.00;0.00;;;;;;;27.74;43.99;99605.03;4976604;28;20129;-71
2023/06/18 12:04:41;;;;;;;0.00;0.00;;;;;;;27.71;43.96;99612.25;4978866;28;20034;-70
2023/06/18 12:07:07;;;;;;;0.00;0.00;;;;;;;27.50;43.95;99602.63;4993806;28;20125;-70
2023/06/18 12:09:35;;;;;;;0.00;0.00;;;;;;;27.66;43.91;99609.88;4987748;28;20041;-70
2023/06/18 12:12:35;;;;;;;0.00;0.00;;;;;;;27.52;43.70;99610.66;4985405;28;20053;-75
2023/06/18 12:15:12;;;;;;;0.00;0.00;;;;;;;27.12;44.43;99609.81;4984726;28;20026;-72
2023/06/18 12:17:50;;;;;;;0.00;0.00;;;;;;;26.87;44.53;99599.34;4991606;28;20022;-73
2023/06/18 12:20:21;;;;;;;0.00;0.00;;;;;;;26.93;45.18;99600.56;4987883;28;20022;-74
2023/06/18 12:22:47;;;;;;;0.00;0.00;;;;;;;27.07;44.88;99596.19;4996978;28;20029;-75